createdAt,value
2023-06-23T00:00:32.298Z,13.18
2023-06-23T00:03:04.204Z,13.16
2023-06-23T00:05:31.781Z,13.27
2023-06-23T00:07:59.383Z,13.19
2023-06-23T00:10:26.788Z,13.25
2023-06-23T00:12:54.234Z,13.24
2023-06-23T00:15:23.489Z,13.37
2023-06-23T00:17:51.737Z,13.44
2023-06-23T00:20:20.419Z,13.41
2023-06-23T00:22:47.687Z,13.39
2023-06-23T00:25:15.034Z,13.38
2023-06-23T00:27:46.526Z,13.37
2023-06-23T00:30:14.818Z,13.50
2023-06-23T00:32:43.123Z,13.48
2023-06-23T00:35:10.986Z,13.43
2023-06-23T00:37:39.093Z,13.43
2023-06-23T00:40:13.535Z,13.40
2023-06-23T00:42:47.721Z,13.34
2023-06-23T00:45:15.564Z,13.48
2023-06-23T00:47:44.641Z,13.36
2023-06-23T00:50:18.294Z,13.29
2023-06-23T00:52:52.983Z,13.42
2023-06-23T00:55:23.169Z,13.39
2023-06-23T00:57:52.343Z,13.34
2023-06-23T01:00:21.531Z,13.43
2023-06-23T01:02:54.547Z,13.43
2023-06-23T01:05:39.003Z,13.43
2023-06-23T01:08:09.461Z,13.43
2023-06-23T01:10:48.588Z,13.43
2023-06-23T01:13:34.942Z,13.47
2023-06-23T01:16:39.039Z,13.50
2023-06-23T01:19:11.973Z,13.47
2023-06-23T01:22:04.250Z,13.41
2023-06-23T01:24:53.202Z,13.34
2023-06-23T01:27:42.112Z,13.24
2023-06-23T01:30:13.678Z,13.15
2023-06-23T01:32:55.967Z,13.10
2023-06-23T01:35:30.457Z,13.05
2023-06-23T01:38:12.771Z,13.03
2023-06-23T01:40:43.203Z,12.92
2023-06-23T01:43:15.184Z,12.71
2023-06-23T01:45:42.963Z,12.92
2023-06-23T01:48:13.011Z,12.79
2023-06-23T01:50:41.593Z,12.70
2023-06-23T01:53:10.795Z,12.63
2023-06-23T01:55:40.398Z,12.64
2023-06-23T01:58:09.121Z,12.38
2023-06-23T02:00:37.860Z,12.34
2023-06-23T02:03:06.688Z,12.48
2023-06-23T02:05:36.692Z,12.61
2023-06-23T02:08:07.055Z,12.61
2023-06-23T02:10:35.989Z,12.65
2023-06-23T02:13:04.463Z,12.16
2023-06-23T02:15:32.643Z,12.25
2023-06-23T02:18:02.135Z,12.07
2023-06-23T02:20:31.857Z,11.89
2023-06-23T02:23:00.693Z,11.81
2023-06-23T02:25:30.287Z,11.80
2023-06-23T02:27:58.249Z,11.62
2023-06-23T02:30:26.711Z,11.62
2023-06-23T02:32:54.287Z,11.91
2023-06-23T02:35:21.811Z,11.87
2023-06-23T02:38:00.600Z,12.09
2023-06-23T02:40:30.829Z,12.14
2023-06-23T02:43:12.743Z,12.20
2023-06-23T02:45:43.755Z,12.28
2023-06-23T02:48:20.216Z,12.33
2023-06-23T02:50:50.246Z,12.34
2023-06-23T02:53:26.738Z,12.33
2023-06-23T02:56:14.210Z,12.27
2023-06-23T02:58:41.402Z,12.39
2023-06-23T03:01:10.612Z,12.44
2023-06-23T03:03:39.570Z,12.33
2023-06-23T03:06:07.230Z,12.26
2023-06-23T03:08:34.370Z,12.16
2023-06-23T03:11:02.821Z,12.05
2023-06-23T03:13:29.940Z,11.96
2023-06-23T03:16:02.412Z,11.85
2023-06-23T03:18:33.858Z,12.01
2023-06-23T03:21:05.004Z,11.96
2023-06-23T03:23:37.071Z,11.89
2023-06-23T03:26:07.368Z,11.99
2023-06-23T03:28:37.667Z,11.87
2023-06-23T03:31:10.001Z,12.10
2023-06-23T03:33:43.714Z,12.14
2023-06-23T03:36:26.317Z,12.13
2023-06-23T03:39:10.155Z,12.33
2023-06-23T03:41:42.210Z,12.55
2023-06-23T03:44:21.330Z,12.75
2023-06-23T03:46:53.342Z,12.78
2023-06-23T03:49:24.244Z,13.01
2023-06-23T03:51:53.755Z,13.10
2023-06-23T03:54:22.069Z,13.11
2023-06-23T03:56:51.346Z,13.17
2023-06-23T03:59:19.990Z,13.48
2023-06-23T04:01:49.475Z,13.57
2023-06-23T04:04:21.073Z,13.77
2023-06-23T04:06:49.944Z,13.84
2023-06-23T04:09:19.911Z,14.09
2023-06-23T04:11:49.957Z,14.14
2023-06-23T04:14:19.506Z,14.20
2023-06-23T04:16:49.524Z,14.09
2023-06-23T04:19:18.069Z,14.28
2023-06-23T04:21:45.809Z,14.06
2023-06-23T04:24:15.918Z,13.99
2023-06-23T04:26:45.311Z,14.17
2023-06-23T04:29:13.908Z,14.06
2023-06-23T04:31:43.072Z,13.95
2023-06-23T04:34:10.154Z,14.22
2023-06-23T04:36:45.646Z,14.36
2023-06-23T04:39:20.792Z,14.39
2023-06-23T04:41:52.469Z,14.49
2023-06-23T04:44:20.857Z,14.53
2023-06-23T04:46:50.246Z,14.60
2023-06-23T04:49:21.231Z,14.62
2023-06-23T04:51:53.189Z,14.58
2023-06-23T04:54:26.471Z,14.65
2023-06-23T04:57:02.814Z,14.45
2023-06-23T04:59:35.147Z,14.28
2023-06-23T05:02:03.958Z,14.53
2023-06-23T05:04:35.111Z,14.70
2023-06-23T05:07:04.396Z,14.72
2023-06-23T05:09:34.286Z,14.84
2023-06-23T05:12:03.083Z,15.11
2023-06-23T05:14:32.363Z,15.09
2023-06-23T05:17:02.278Z,15.05
2023-06-23T05:19:31.650Z,15.06
2023-06-23T05:22:00.717Z,14.84
2023-06-23T05:24:30.130Z,14.74
2023-06-23T05:27:01.006Z,14.57
2023-06-23T05:29:29.842Z,14.37
2023-06-23T05:31:58.243Z,14.12
2023-06-23T05:34:26.445Z,14.23
2023-06-23T05:36:53.999Z,14.04
2023-06-23T05:39:24.792Z,14.08
2023-06-23T05:41:51.936Z,14.10
2023-06-23T05:44:19.223Z,14.07
2023-06-23T05:47:08.523Z,14.12
2023-06-23T05:49:41.603Z,14.22
2023-06-23T05:52:14.796Z,14.29
2023-06-23T05:54:45.884Z,14.33
2023-06-23T05:57:28.730Z,14.34
2023-06-23T06:00:06.178Z,14.56
2023-06-23T06:02:43.270Z,14.65
2023-06-23T06:05:15.352Z,14.83
2023-06-23T06:07:44.061Z,14.88
2023-06-23T06:10:12.729Z,15.09
2023-06-23T06:12:42.016Z,15.09
2023-06-23T06:15:11.264Z,15.04
2023-06-23T06:17:40.804Z,15.12
2023-06-23T06:20:09.790Z,15.13
2023-06-23T06:22:40.007Z,15.17
2023-06-23T06:25:08.760Z,15.21
2023-06-23T06:27:36.462Z,15.21
2023-06-23T06:30:05.381Z,15.38
2023-06-23T06:32:39.020Z,15.50
2023-06-23T06:35:09.969Z,15.42
2023-06-23T06:37:43.078Z,15.61
2023-06-23T06:40:13.009Z,15.60
2023-06-23T06:42:40.330Z,15.76
2023-06-23T06:45:09.587Z,15.83
2023-06-23T06:47:44.547Z,16.05
2023-06-23T06:50:15.099Z,16.29
2023-06-23T06:52:45.508Z,16.51
2023-06-23T06:55:21.798Z,16.78
2023-06-23T06:57:49.696Z,16.99
2023-06-23T07:00:21.642Z,17.36
2023-06-23T07:02:49.739Z,17.82
2023-06-23T07:05:21.342Z,18.11
2023-06-23T07:07:48.694Z,18.63
2023-06-23T07:10:15.854Z,19.03
2023-06-23T07:12:42.993Z,19.24
2023-06-23T07:15:10.853Z,19.48
2023-06-23T07:17:40.390Z,19.76
2023-06-23T07:20:08.690Z,20.16
2023-06-23T07:22:36.099Z,20.16
2023-06-23T07:25:03.306Z,20.35
2023-06-23T07:27:31.604Z,20.19
2023-06-23T07:29:59.896Z,20.25
2023-06-23T07:32:27.958Z,20.06
2023-06-23T07:34:55.590Z,20.12
2023-06-23T07:37:23.464Z,20.12
2023-06-23T07:39:50.950Z,19.92
2023-06-23T07:42:18.174Z,19.69
2023-06-23T07:44:46.004Z,19.65
2023-06-23T07:47:15.304Z,19.49
2023-06-23T07:49:43.192Z,19.28
2023-06-23T07:52:12.414Z,19.22
2023-06-23T07:54:40.968Z,19.10
2023-06-23T07:57:09.828Z,19.10
2023-06-23T07:59:37.030Z,18.96
2023-06-23T08:02:05.166Z,18.96
2023-06-23T08:04:32.579Z,18.93
2023-06-23T08:07:00.243Z,18.86
2023-06-23T08:09:27.572Z,18.91
2023-06-23T08:11:54.682Z,18.72
2023-06-23T08:14:21.811Z,18.43
2023-06-23T08:16:49.426Z,18.37
2023-06-23T08:19:22.774Z,18.29
2023-06-23T08:21:50.836Z,18.35
2023-06-23T08:24:18.063Z,18.35
2023-06-23T08:26:46.300Z,18.28
2023-06-23T08:29:13.496Z,18.07
2023-06-23T08:31:40.667Z,18.05
2023-06-23T08:34:07.878Z,18.04
2023-06-23T08:36:34.974Z,18.33
2023-06-23T08:39:02.089Z,18.29
2023-06-23T08:41:30.783Z,18.38
2023-06-23T08:44:02.610Z,18.51
2023-06-23T08:46:44.413Z,18.45
2023-06-23T08:49:22.965Z,18.48
2023-06-23T08:51:54.580Z,18.25
2023-06-23T08:54:22.199Z,18.25
2023-06-23T08:56:49.545Z,17.79
2023-06-23T08:59:17.257Z,17.48
2023-06-23T09:01:44.671Z,17.37
2023-06-23T09:04:12.522Z,17.30
2023-06-23T09:06:39.740Z,17.16
2023-06-23T09:09:06.787Z,16.95
2023-06-23T09:11:34.331Z,16.83
2023-06-23T09:14:02.746Z,16.88
2023-06-23T09:16:30.851Z,16.65
2023-06-23T09:18:58.800Z,16.51
2023-06-23T09:21:26.870Z,16.25
2023-06-23T09:24:07.679Z,16.21
2023-06-23T09:26:52.783Z,16.14
2023-06-23T09:29:29.432Z,16.13
2023-06-23T09:31:57.077Z,16.17
2023-06-23T09:34:26.788Z,16.24
2023-06-23T09:37:05.518Z,16.20
2023-06-23T09:39:42.727Z,16.11
2023-06-23T09:42:14.437Z,16.09
2023-06-23T09:44:47.908Z,16.21
2023-06-23T09:47:19.296Z,16.14
2023-06-23T09:49:49.234Z,16.26
2023-06-23T09:52:24.387Z,16.18
2023-06-23T09:54:51.499Z,16.27
2023-06-23T09:57:20.649Z,16.36
2023-06-23T09:59:53.936Z,16.25
2023-06-23T10:02:33.076Z,16.42
2023-06-23T10:05:04.423Z,16.55
2023-06-23T10:07:37.206Z,16.60
2023-06-23T10:12:41.684Z,16.63
2023-06-23T10:15:10.342Z,16.74
2023-06-23T10:17:37.826Z,16.63
2023-06-23T10:20:06.699Z,16.67
2023-06-23T10:22:35.916Z,16.80
2023-06-23T10:25:03.444Z,16.71
2023-06-23T10:27:34.601Z,16.98
2023-06-23T10:30:04.470Z,17.04
2023-06-23T10:32:36.103Z,17.09
2023-06-23T10:35:10.196Z,17.16
2023-06-23T10:37:44.640Z,16.95
2023-06-23T10:40:19.774Z,17.05
2023-06-23T10:42:50.201Z,16.81
2023-06-23T10:45:17.699Z,16.81
2023-06-23T10:47:47.317Z,16.68
2023-06-23T10:50:15.524Z,16.69
2023-06-23T10:52:43.774Z,16.63
2023-06-23T10:55:58.007Z,16.64
2023-06-23T10:58:30.153Z,16.75
2023-06-23T11:00:57.482Z,16.80
2023-06-23T11:03:35.344Z,16.84
2023-06-23T11:06:10.424Z,16.86
2023-06-23T11:08:45.842Z,16.82
2023-06-23T11:11:14.621Z,17.02
2023-06-23T11:13:43.581Z,17.04
2023-06-23T11:16:17.196Z,17.23
2023-06-23T11:18:53.631Z,17.31
2023-06-23T11:21:26.998Z,17.40
2023-06-23T11:24:15.024Z,17.59
2023-06-23T11:27:01.573Z,17.68
2023-06-23T11:29:29.325Z,17.95
2023-06-23T11:32:14.096Z,18.31
2023-06-23T11:34:53.470Z,18.77
2023-06-23T11:37:32.998Z,19.11
2023-06-23T11:40:02.206Z,19.03
2023-06-23T11:42:33.342Z,19.16
2023-06-23T11:45:01.312Z,19.25
2023-06-23T11:47:33.379Z,19.29
2023-06-23T11:50:08.233Z,19.26
2023-06-23T11:52:35.769Z,19.65
2023-06-23T11:55:05.218Z,19.68
2023-06-23T11:57:33.503Z,19.62
2023-06-23T12:00:01.009Z,19.61
2023-06-23T12:02:28.748Z,19.93
2023-06-23T12:04:57.560Z,20.15
2023-06-23T12:07:30.171Z,20.21
2023-06-23T12:09:58.621Z,20.02
2023-06-23T12:12:25.916Z,19.74
2023-06-23T12:15:00.607Z,19.70
2023-06-23T12:17:28.081Z,19.38
2023-06-23T12:19:55.997Z,19.65
2023-06-23T12:22:23.412Z,19.76
2023-06-23T12:24:51.021Z,20.00
2023-06-23T12:27:18.709Z,20.14
2023-06-23T12:29:45.761Z,20.23
2023-06-23T12:32:14.429Z,20.21
2023-06-23T12:34:50.302Z,19.99
2023-06-23T12:37:19.997Z,20.15
2023-06-23T12:39:54.563Z,20.32
2023-06-23T12:42:22.806Z,20.49
2023-06-23T12:44:51.031Z,20.54
2023-06-23T12:47:21.202Z,20.91
2023-06-23T12:49:49.320Z,21.00
2023-06-23T12:52:16.683Z,20.90
2023-06-23T12:54:45.352Z,21.08
2023-06-23T12:57:13.676Z,22.10
2023-06-23T12:59:42.364Z,22.39
2023-06-23T13:02:10.023Z,22.37
2023-06-23T13:04:37.276Z,22.25
2023-06-23T13:07:04.631Z,22.43
2023-06-23T13:09:31.884Z,23.14
2023-06-23T13:11:59.158Z,24.28
2023-06-23T13:14:27.258Z,24.74
2023-06-23T13:16:54.571Z,24.49
2023-06-23T13:19:21.719Z,23.74
2023-06-23T13:21:50.420Z,23.17
2023-06-23T13:24:17.486Z,22.63
2023-06-23T13:26:45.199Z,22.25
2023-06-23T13:29:13.322Z,22.18
2023-06-23T13:31:40.929Z,22.55
2023-06-23T13:34:08.045Z,22.91
2023-06-23T13:36:37.242Z,22.88
2023-06-23T13:39:04.625Z,22.65
2023-06-23T13:41:31.766Z,22.49
2023-06-23T13:43:58.893Z,22.40
2023-06-23T13:46:26.773Z,22.49
2023-06-23T13:48:53.984Z,22.27
2023-06-23T13:51:21.244Z,21.99
2023-06-23T13:53:48.305Z,21.79
2023-06-23T13:56:15.445Z,21.68
2023-06-23T13:58:42.697Z,21.54
2023-06-23T14:01:09.865Z,21.30
2023-06-23T14:03:37.097Z,21.35
2023-06-23T14:06:05.315Z,21.55
2023-06-23T14:08:35.139Z,21.72
2023-06-23T14:11:02.979Z,21.73
2023-06-23T14:13:30.082Z,21.61
2023-06-23T14:15:57.388Z,21.51
2023-06-23T14:18:24.888Z,21.39
2023-06-23T14:20:52.119Z,21.38
2023-06-23T14:23:19.314Z,21.31
2023-06-23T14:25:46.957Z,21.20
2023-06-23T14:28:14.258Z,21.32
2023-06-23T14:30:41.377Z,21.29
2023-06-23T14:33:09.948Z,21.43
2023-06-23T14:35:37.148Z,21.70
2023-06-23T14:38:07.979Z,21.97
2023-06-23T14:40:35.984Z,22.08
2023-06-23T14:43:04.253Z,21.94
2023-06-23T14:45:35.733Z,21.59
2023-06-23T14:48:03.090Z,21.50
2023-06-23T14:50:30.422Z,21.13
2023-06-23T14:52:57.838Z,20.75
2023-06-23T14:55:25.704Z,20.51
2023-06-23T14:57:54.434Z,20.13
2023-06-23T15:00:22.296Z,20.05
2023-06-23T15:02:49.459Z,19.77
2023-06-23T15:05:16.573Z,19.65
2023-06-23T15:07:43.825Z,19.49
2023-06-23T15:10:11.196Z,19.61
2023-06-23T15:12:38.257Z,19.75
2023-06-23T15:15:06.307Z,19.91
2023-06-23T15:17:33.653Z,19.91
2023-06-23T15:20:01.060Z,20.18
2023-06-23T15:22:28.464Z,20.24
2023-06-23T15:24:55.625Z,20.31
2023-06-23T15:27:23.114Z,20.33
2023-06-23T15:29:50.093Z,20.16
2023-06-23T15:32:17.484Z,20.17
2023-06-23T15:34:44.611Z,20.07
2023-06-23T15:37:11.912Z,19.90
2023-06-23T15:39:42.494Z,20.01
2023-06-23T15:42:12.896Z,19.97
2023-06-23T15:44:43.492Z,20.09
2023-06-23T15:47:10.796Z,20.04
2023-06-23T15:49:38.140Z,19.98
2023-06-23T15:52:06.690Z,20.05
2023-06-23T15:54:36.165Z,19.78
2023-06-23T15:57:04.044Z,19.88
2023-06-23T15:59:31.258Z,19.74
2023-06-23T16:01:58.382Z,19.70
2023-06-23T16:04:26.078Z,19.67
2023-06-23T16:06:53.696Z,19.46
2023-06-23T16:09:20.979Z,19.53
2023-06-23T16:11:48.347Z,19.54
2023-06-23T16:14:15.493Z,19.39
2023-06-23T16:16:42.774Z,19.44
2023-06-23T16:19:10.131Z,19.24
2023-06-23T16:21:37.404Z,19.44
2023-06-23T16:24:04.655Z,19.45
2023-06-23T16:26:32.244Z,19.49
2023-06-23T16:29:00.034Z,19.55
2023-06-23T16:31:27.142Z,19.56
2023-06-23T16:33:56.653Z,19.39
2023-06-23T16:36:25.755Z,19.60
2023-06-23T16:38:53.090Z,19.64
2023-06-23T16:41:20.942Z,19.60
2023-06-23T16:43:49.283Z,19.54
2023-06-23T16:46:16.703Z,19.57
2023-06-23T16:48:43.924Z,19.58
2023-06-23T16:51:11.283Z,19.57
2023-06-23T16:53:38.727Z,19.48
2023-06-23T16:56:08.010Z,19.45
2023-06-23T16:58:35.203Z,19.40
2023-06-23T17:01:02.614Z,19.36
2023-06-23T17:03:30.047Z,19.34
2023-06-23T17:05:57.418Z,19.09
2023-06-23T17:08:24.756Z,19.13
2023-06-23T17:10:51.823Z,19.22
2023-06-23T17:13:18.829Z,19.15
2023-06-23T17:15:46.041Z,18.95
2023-06-23T17:18:13.285Z,19.05
2023-06-23T17:20:40.465Z,19.04
2023-06-23T17:23:07.680Z,19.03
2023-06-23T17:25:35.172Z,18.92
2023-06-23T17:28:02.694Z,18.92
2023-06-23T17:30:29.907Z,18.74
2023-06-23T17:32:57.079Z,18.82
2023-06-23T17:35:24.265Z,18.74
2023-06-23T17:37:51.801Z,18.65
2023-06-23T17:40:25.791Z,18.63
2023-06-23T17:42:54.219Z,18.51
2023-06-23T17:45:21.726Z,18.44
2023-06-23T17:47:50.001Z,18.44
2023-06-23T17:50:17.718Z,18.36
2023-06-23T17:52:44.801Z,18.34
2023-06-23T17:55:11.997Z,18.16
2023-06-23T17:57:39.369Z,18.23
2023-06-23T18:00:07.670Z,18.15
2023-06-23T18:02:35.168Z,18.18
2023-06-23T18:05:02.666Z,18.07
2023-06-23T18:07:32.551Z,18.12
2023-06-23T18:09:59.873Z,18.11
2023-06-23T18:12:27.189Z,18.12
2023-06-23T18:14:54.414Z,18.02
2023-06-23T18:17:21.867Z,17.94
2023-06-23T18:19:49.023Z,17.91
2023-06-23T18:22:16.095Z,17.98
2023-06-23T18:24:43.214Z,17.99
2023-06-23T18:27:10.353Z,18.00
2023-06-23T18:29:37.506Z,17.91
2023-06-23T18:32:33.988Z,17.98
2023-06-23T18:35:02.511Z,18.01
2023-06-23T18:37:32.488Z,18.05
2023-06-23T18:39:59.928Z,17.91
2023-06-23T18:42:28.176Z,18.09
2023-06-23T18:44:55.498Z,18.07
2023-06-23T18:47:27.987Z,17.94
2023-06-23T18:49:55.461Z,18.06
2023-06-23T18:52:26.417Z,18.03
2023-06-23T18:54:54.927Z,18.00
2023-06-23T18:57:23.843Z,17.82
2023-06-23T18:59:51.617Z,17.94
2023-06-23T19:02:18.846Z,17.91
2023-06-23T19:04:46.015Z,17.85
2023-06-23T19:07:13.440Z,17.91
2023-06-23T19:09:40.772Z,17.92
2023-06-23T19:12:12.189Z,17.83
2023-06-23T19:14:39.465Z,17.71
2023-06-23T19:17:07.927Z,17.35
2023-06-23T19:19:38.881Z,17.45
2023-06-23T19:22:07.647Z,17.31
2023-06-23T19:24:38.554Z,17.43
2023-06-23T19:27:08.413Z,17.34
2023-06-23T19:29:36.008Z,17.41
2023-06-23T19:32:03.451Z,17.18
2023-06-23T19:34:34.074Z,17.30
2023-06-23T19:37:01.700Z,17.30
2023-06-23T19:39:29.619Z,17.19
2023-06-23T19:41:56.912Z,17.20
2023-06-23T19:44:26.171Z,17.22
2023-06-23T19:46:53.482Z,17.21
2023-06-23T19:49:20.483Z,17.20
2023-06-23T19:51:47.867Z,17.14
2023-06-23T19:54:15.083Z,17.10
2023-06-23T19:56:42.233Z,17.11
2023-06-23T19:59:09.330Z,17.09
2023-06-23T20:01:36.579Z,17.08
2023-06-23T20:04:03.970Z,17.01
2023-06-23T20:06:31.134Z,17.03
2023-06-23T20:08:58.429Z,17.05
2023-06-23T20:11:25.694Z,17.00
2023-06-23T20:13:52.754Z,16.92
2023-06-23T20:16:20.114Z,16.89
2023-06-23T20:18:47.520Z,16.99
2023-06-23T20:21:15.662Z,16.92
2023-06-23T20:23:42.819Z,17.03
2023-06-23T20:26:09.872Z,16.95
2023-06-23T20:28:37.050Z,17.02
2023-06-23T20:31:05.617Z,17.02
2023-06-23T20:33:33.264Z,17.03
2023-06-23T20:36:03.155Z,17.13
2023-06-23T20:38:30.475Z,17.16
2023-06-23T20:40:57.772Z,17.11
2023-06-23T20:43:26.575Z,17.13
2023-06-23T20:45:53.729Z,17.12
2023-06-23T20:48:21.522Z,17.14
2023-06-23T20:50:48.944Z,17.10
2023-06-23T20:53:16.217Z,17.09
2023-06-23T20:55:43.409Z,17.01
2023-06-23T20:58:10.776Z,17.11
2023-06-23T21:00:38.587Z,16.92
2023-06-23T21:03:06.061Z,17.10
2023-06-23T21:05:33.391Z,17.06
2023-06-23T21:08:00.699Z,17.02
2023-06-23T21:10:29.027Z,17.12
2023-06-23T21:12:57.140Z,17.05
2023-06-23T21:15:27.127Z,17.17
2023-06-23T21:17:55.022Z,17.19
2023-06-23T21:20:24.555Z,17.18
2023-06-23T21:22:52.114Z,17.00
2023-06-23T21:25:20.524Z,17.20
2023-06-23T21:27:51.159Z,17.21
2023-06-23T21:30:18.913Z,17.06
2023-06-23T21:32:46.468Z,17.06
2023-06-23T21:35:13.790Z,17.15
2023-06-23T21:37:43.382Z,16.94
2023-06-23T21:40:14.749Z,17.17
2023-06-23T21:42:42.198Z,17.14
2023-06-23T21:45:10.023Z,17.14
2023-06-23T21:47:37.328Z,17.03
2023-06-23T21:50:06.003Z,17.17
2023-06-23T21:52:34.359Z,17.01
2023-06-23T21:55:01.514Z,17.19
2023-06-23T21:57:30.628Z,17.08
2023-06-23T21:59:58.028Z,17.20
2023-06-23T22:02:25.325Z,17.20
2023-06-23T22:04:53.327Z,17.24
2023-06-23T22:07:22.760Z,16.38
2023-06-23T22:09:50.079Z,17.20
2023-06-23T22:12:17.299Z,17.12
2023-06-23T22:14:44.699Z,17.02
2023-06-23T22:17:11.714Z,17.08
2023-06-23T22:19:39.107Z,17.08
2023-06-23T22:22:06.378Z,16.81
2023-06-23T22:24:33.598Z,17.09
2023-06-23T22:27:00.878Z,17.11
2023-06-23T22:29:28.093Z,17.11
2023-06-23T22:31:55.556Z,17.07
2023-06-23T22:34:23.581Z,16.80
2023-06-23T22:36:50.857Z,17.01
2023-06-23T22:39:17.880Z,16.92
2023-06-23T22:41:45.040Z,16.93
2023-06-23T22:44:12.282Z,16.85
2023-06-23T22:46:39.509Z,16.91
2023-06-23T22:49:07.262Z,16.82
2023-06-23T22:51:34.373Z,16.81
2023-06-23T22:54:01.435Z,16.84
2023-06-23T22:56:28.798Z,16.63
2023-06-23T22:58:55.963Z,16.81
2023-06-23T23:01:24.771Z,16.71
2023-06-23T23:03:52.213Z,16.87
2023-06-23T23:06:19.596Z,16.81
2023-06-23T23:08:48.227Z,16.63
2023-06-23T23:11:15.586Z,16.73
2023-06-23T23:13:43.489Z,16.83
2023-06-23T23:16:10.705Z,16.66
2023-06-23T23:18:38.073Z,16.70
2023-06-23T23:21:05.429Z,16.80
2023-06-23T23:23:34.996Z,16.69
2023-06-23T23:26:03.094Z,16.76
2023-06-23T23:28:30.355Z,16.59
2023-06-23T23:31:00.170Z,16.54
2023-06-23T23:33:27.864Z,16.65
2023-06-23T23:36:03.281Z,16.65
2023-06-23T23:38:31.062Z,16.16
2023-06-23T23:40:59.355Z,16.65
2023-06-23T23:43:26.809Z,16.58
2023-06-23T23:45:54.192Z,16.45
2023-06-23T23:48:21.300Z,16.60
2023-06-23T23:50:48.570Z,16.57
2023-06-23T23:53:15.644Z,16.54
2023-06-23T23:55:42.830Z,16.49
2023-06-23T23:58:10.563Z,16.46
